Etusivu
METAR-TAF:

METAR-TAF

Lentoasemat :

Sotilaslentoasema

Ismaïlia, Egypti

Leveyspiiri: 30-35-54N, Pituuspiiri: 032-14-13E, korkeus merenpinnasta: 13 m

Tämänhetkinen sää

Tämä raportti tehtiin 5 tuntia ja 19 minuuttia sitten, kello 15.00 UTC
Tuuli 8 kn lännestä/luoteesta
Lämpötila 39°C
Kosteus 18%
Ilmanpaine 1007 hPa
Näkyvyys 10 km tai enemmän
Muutamia pilviä 3000 ft:n korkeudessa

METAR: HEIS 121500Z 29008KT 9999 FEW030 39/10 Q1007

Aika: 22:19 (20:19 UTC)


TAF: puuttuu

Säähavainnot ja -ennusteet yli 4000 lentoasemalta (METAR- ja TAF-raportit).

Käytössä olevat sääasemat on merkitty karttaan keltaisilla ja punaisilla pisteillä.

Aseta hiiri pisteen päälle nähdäksesi sääaseman nimen.

Klikkaa sitten nähdäksesi säähavainnot ja -ennusteet.

Kartan vaihtaminen: klikkaa mustalla rastilla varustettuja vihreitä pisteitä, niin voit zoomata sisään; viivalla varustettua vihreää pistettä, niin voit zoomata ulos tai vihreitä nuolia, niin pääset viereisille kartoille.


METAR-TAF: